Portada
METAR-TAF:

METAR-TAF

Aeropuertos :

Pittsburgh, Pensilvania, Estados Unidos

Aeropuerto Internacional de Pittsburgh

latitud: 40-30-14N, longitud: 080-15-59W, altitud: 366 m

Observación

El informe se hizo hace 1 hora y 7 minutos, a las 18:51 UTC
Viento 12 kt del oeste-suroeste con ráfagas de 17 kt
Temperatura -4°C
Humedad 54%
Presión 1020 hPa
Visibilidad: 16.1 km
Cielo despejado

METAR: KPIT 181851Z 24012G17KT 10SM CLR M04/M12 A3012 RMK AO2 SLP229 T10441122

Hora: 14:58 (19:58 UTC)

Pronóstico

El informe se hizo hace 2 horas y 32 minutos, a las 17:26 UTC
Pronóstico válido del 18 a las 18 UTC al 19 a las 24 UTC
Viento 11 kt del suroeste con ráfagas de 18 kt
Visibilidad: 10 km
Cielo despejado
A partir de las 18 a las 2300 UTC
Viento 9 kt del suroeste
Visibilidad: 10 km
Nubes dispersas a una altura de 25000 ft

TAF: KPIT 181726Z 1818/1924 23011G18KT P6SM SKC FM182300 23009KT P6SM SCT250

Observaciones y pronósticos meteorológicos de más de 4000 aeropuertos (mensajes METAR y TAF).

Los puntos amarillos y rojos representan las estaciones disponibles.

Ponga el ratón en el punto deseado para ver el nombre de la estación.

Haga clic para ver las observaciones y los pronósticos meteorológicos.

Para cambiar el mapa : haga clic en los botones verdes con una cruz de color negro para hacer un zoom, en el botón verde con un guión para alejar o en las flechas verdes para mapas adyacentes.


METAR-TAF: